Time;durP1;ratioP1;P1;durP2;ratioP2;P2;SDS_P1;SDS_P2;PMS_P1;PMS_P2;Temp;Humidity;BMP_temperature;BMP_pressure;BME280_temperature;BME280_humidity;BME280_pressure;Samples;Min_cycle;Max_cycle;Signal;HPM_P1;HPM_P2
2022/05/24 00:01:39;;;;;;;2.58;2.38;;;;;;;;;;5082208;28;20059;-73
2022/05/24 00:04:05;;;;;;;4.13;2.17;;;;;;;;;;5090993;28;20087;-73
2022/05/24 00:06:32;;;;;;;2.67;2.40;;;;;;;;;;5098369;28;20122;-73
2022/05/24 00:08:59;;;;;;;2.58;1.77;;;;;;;;;;5098116;28;20116;-73
2022/05/24 00:11:30;;;;;;;3.72;1.70;;;;;;;;;;5098388;28;20052;-73
2022/05/24 00:13:57;;;;;;;1.70;1.30;;;;;;;;;;5098227;28;20048;-73
2022/05/24 00:16:23;;;;;;;1.67;1.30;;;;;;;;;;5097950;28;20079;-73
2022/05/24 00:18:50;;;;;;;1.33;1.20;;;;;;;;;;5098392;28;20123;-73
2022/05/24 00:21:16;;;;;;;2.00;1.35;;;;;;;;;;5098251;28;20044;-73
2022/05/24 00:23:43;;;;;;;2.72;1.30;;;;;;;;;;5098246;28;20094;-73
2022/05/24 00:26:14;;;;;;;1.70;1.10;;;;;;;;;;5097993;28;20083;-72
2022/05/24 00:28:40;;;;;;;2.42;1.50;;;;;;;;;;5098206;28;20048;-72
2022/05/24 00:31:06;;;;;;;1.92;1.20;;;;;;;;;;5098274;28;20098;-72
2022/05/24 00:33:34;;;;;;;1.30;1.20;;;;;;;;;;5098028;28;20079;-72
2022/05/24 00:36:01;;;;;;;1.55;1.00;;;;;;;;;;5084277;28;20045;-72
2022/05/24 00:38:30;;;;;;;2.08;1.10;;;;;;;;;;5093257;28;20060;-72
2022/05/24 00:41:16;;;;;;;2.30;1.25;;;;;;;;;;5098115;28;20123;-72
2022/05/24 00:43:46;;;;;;;1.60;1.27;;;;;;;;;;5097865;28;20091;-72
2022/05/24 00:46:15;;;;;;;4.97;1.25;;;;;;;;;;5097758;28;20086;-72
2022/05/24 00:48:48;;;;;;;3.10;1.05;;;;;;;;;;5096483;28;20056;-73
2022/05/24 00:51:17;;;;;;;1.58;1.20;;;;;;;;;;5098019;28;20079;-72
2022/05/24 00:53:48;;;;;;;1.08;0.90;;;;;;;;;;5095259;28;20576;-72
2022/05/24 00:56:20;;;;;;;2.53;0.90;;;;;;;;;;5094767;28;20151;-72
2022/05/24 00:58:56;;;;;;;1.92;1.13;;;;;;;;;;5094786;28;20083;-72
2022/05/24 01:01:39;;;;;;;1.67;1.17;;;;;;;;;;5094385;28;20075;-72
2022/05/24 01:04:07;;;;;;;1.08;0.73;;;;;;;;;;5094731;28;20052;-72
2022/05/24 01:06:33;;;;;;;1.67;0.52;;;;;;;;;;5094644;28;20140;-72
2022/05/24 01:09:02;;;;;;;2.10;0.52;;;;;;;;;;5094589;28;20106;-72
2022/05/24 01:11:30;;;;;;;1.00;0.50;;;;;;;;;;5094501;28;20090;-71
2022/05/24 01:13:56;;;;;;;;;;;;;;;;;;5094565;28;20083;-71
2022/05/24 01:16:22;;;;;;;0.47;0.45;;;;;;;;;;5094333;28;19920;-71
2022/05/24 01:18:49;;;;;;;0.30;0.30;;;;;;;;;;5094476;28;20082;-71
2022/05/24 01:21:16;;;;;;;0.30;0.20;;;;;;;;;;5094348;28;20436;-71
2022/05/24 01:23:57;;;;;;;1.75;0.40;;;;;;;;;;5094367;28;20540;-71
2022/05/24 01:26:42;;;;;;;0.30;0.30;;;;;;;;;;5094476;28;20091;-71
2022/05/24 01:29:09;;;;;;;0.85;0.40;;;;;;;;;;5093898;28;20087;-71
2022/05/24 01:37:08;;;;;;;0.80;0.80;;;;;;;;;;5078258;28;20040;-71
2022/05/24 01:39:35;;;;;;;1.23;1.13;;;;;;;;;;5094061;28;20090;-71
2022/05/24 01:42:02;;;;;;;1.30;1.20;;;;;;;;;;5093916;28;20036;-71
2022/05/24 01:44:40;;;;;;;1.50;1.40;;;;;;;;;;5093585;28;20531;-71
2022/05/24 01:47:07;;;;;;;2.47;1.70;;;;;;;;;;5093515;28;20048;-71
2022/05/24 01:49:36;;;;;;;4.00;2.15;;;;;;;;;;5093776;28;20127;-71
2022/05/24 01:52:06;;;;;;;2.40;2.20;;;;;;;;;;5093620;28;20121;-71
2022/05/24 01:54:34;;;;;;;3.53;3.00;;;;;;;;;;5093510;28;20075;-71
2022/05/24 01:57:05;;;;;;;2.83;2.63;;;;;;;;;;5093668;28;20126;-71
2022/05/24 01:59:32;;;;;;;2.42;2.22;;;;;;;;;;5093319;28;20119;-71
2022/05/24 02:01:59;;;;;;;4.25;2.45;;;;;;;;;;5093542;28;20121;-71
2022/05/24 02:04:26;;;;;;;2.80;2.60;;;;;;;;;;5093100;28;20044;-71
2022/05/24 02:07:00;;;;;;;3.72;2.90;;;;;;;;;;5092393;28;20496;-72
2022/05/24 02:09:27;;;;;;;3.75;2.28;;;;;;;;;;5093364;28;20059;-71
2022/05/24 02:11:54;;;;;;;3.78;2.53;;;;;;;;;;5093055;28;20507;-71
2022/05/24 02:14:22;;;;;;;3.30;3.00;;;;;;;;;;5092962;28;20107;-71
2022/05/24 02:16:57;;;;;;;3.20;2.33;;;;;;;;;;5093239;28;20071;-71
2022/05/24 02:19:24;;;;;;;2.40;2.20;;;;;;;;;;5092919;28;20090;-71
2022/05/24 02:21:54;;;;;;;2.15;1.88;;;;;;;;;;5092868;28;20083;-71
2022/05/24 02:24:21;;;;;;;2.22;2.03;;;;;;;;;;5093225;28;20470;-71
2022/05/24 02:26:50;;;;;;;2.78;1.90;;;;;;;;;;5092740;28;20044;-71
2022/05/24 02:29:18;;;;;;;2.10;1.55;;;;;;;;;;5092756;28;20083;-70
2022/05/24 02:31:45;;;;;;;2.25;1.90;;;;;;;;;;5092967;28;20129;-70
2022/05/24 02:34:12;;;;;;;2.30;2.10;;;;;;;;;;5092930;28;20047;-70
2022/05/24 02:36:38;;;;;;;1.77;1.67;;;;;;;;;;5075340;28;20082;-71
2022/05/24 02:39:05;;;;;;;1.60;1.50;;;;;;;;;;5092392;28;20048;-70
2022/05/24 02:41:32;;;;;;;1.50;1.40;;;;;;;;;;5092748;28;20052;-70
2022/05/24 02:44:00;;;;;;;2.22;1.70;;;;;;;;;;5091521;28;20097;-71
2022/05/24 02:46:27;;;;;;;2.00;1.30;;;;;;;;;;5092715;28;20087;-71
2022/05/24 02:48:53;;;;;;;1.70;1.50;;;;;;;;;;5091356;28;20132;-70
2022/05/24 02:51:20;;;;;;;1.63;1.45;;;;;;;;;;5092342;28;20076;-71
2022/05/24 02:53:46;;;;;;;1.65;1.55;;;;;;;;;;5092181;28;20403;-70
2022/05/24 02:56:13;;;;;;;1.33;1.10;;;;;;;;;;5092094;28;20065;-70
2022/05/24 02:58:40;;;;;;;2.17;1.77;;;;;;;;;;5092459;28;20044;-70
2022/05/24 03:01:11;;;;;;;1.42;1.33;;;;;;;;;;5092398;28;20051;-70
2022/05/24 03:03:38;;;;;;;2.75;1.55;;;;;;;;;;5091202;28;20047;-70
2022/05/24 03:06:04;;;;;;;1.98;1.35;;;;;;;;;;5092040;28;20512;-71
2022/05/24 03:11:16;;;;;;;2.30;1.60;;;;;;;;;;5091915;28;20507;-70
2022/05/24 03:16:27;;;;;;;1.63;1.52;;;;;;;;;;5091822;28;20472;-70
2022/05/24 03:18:54;;;;;;;2.03;1.52;;;;;;;;;;5091940;28;20471;-72
2022/05/24 03:21:20;;;;;;;1.45;1.35;;;;;;;;;;5090519;28;20080;-71
2022/05/24 03:23:47;;;;;;;1.35;1.25;;;;;;;;;;5091859;28;20503;-71
2022/05/24 03:26:14;;;;;;;1.85;1.75;;;;;;;;;;5092059;28;20048;-71
2022/05/24 03:28:41;;;;;;;1.75;1.45;;;;;;;;;;5091854;28;20044;-72
2022/05/24 03:31:08;;;;;;;1.83;1.60;;;;;;;;;;5090191;28;20083;-71
2022/05/24 03:33:35;;;;;;;1.65;1.50;;;;;;;;;;5086834;28;20582;-71
2022/05/24 03:36:01;;;;;;;2.27;1.77;;;;;;;;;;5080876;28;20135;-70
2022/05/24 03:38:28;;;;;;;3.85;1.90;;;;;;;;;;5091674;28;20060;-70
2022/05/24 03:40:55;;;;;;;2.00;1.73;;;;;;;;;;5090549;28;20086;-71
2022/05/24 03:43:21;;;;;;;3.30;1.70;;;;;;;;;;5091839;28;20043;-70
2022/05/24 03:45:48;;;;;;;2.13;1.80;;;;;;;;;;5091554;28;20550;-71
2022/05/24 03:48:15;;;;;;;2.13;2.03;;;;;;;;;;5092194;28;20060;-70
2022/05/24 03:50:41;;;;;;;1.88;1.70;;;;;;;;;;5091761;28;20645;-70
2022/05/24 03:53:08;;;;;;;2.03;1.88;;;;;;;;;;5090667;28;20086;-71
2022/05/24 03:55:34;;;;;;;2.15;1.88;;;;;;;;;;5091333;28;20075;-70
2022/05/24 03:58:01;;;;;;;1.90;1.80;;;;;;;;;;5091502;28;20094;-70
2022/05/24 04:00:28;;;;;;;1.83;1.73;;;;;;;;;;5091545;28;20412;-71
2022/05/24 04:02:55;;;;;;;2.70;2.50;;;;;;;;;;5091757;28;20408;-72
2022/05/24 04:05:22;;;;;;;2.78;2.40;;;;;;;;;;5091743;28;20083;-73
2022/05/24 04:07:49;;;;;;;2.38;2.20;;;;;;;;;;5091588;28;20089;-72
2022/05/24 04:10:16;;;;;;;3.10;2.57;;;;;;;;;;5091672;28;20055;-73
2022/05/24 04:12:43;;;;;;;2.70;2.50;;;;;;;;;;5091272;28;20067;-72
2022/05/24 04:15:09;;;;;;;3.45;2.75;;;;;;;;;;5091165;28;20545;-71
2022/05/24 04:17:36;;;;;;;3.83;2.92;;;;;;;;;;5091226;28;20102;-74
2022/05/24 04:20:03;;;;;;;5.05;2.80;;;;;;;;;;5091563;28;20079;-73
2022/05/24 04:22:30;;;;;;;3.00;2.80;;;;;;;;;;5091660;28;20082;-73
2022/05/24 04:24:56;;;;;;;3.22;2.97;;;;;;;;;;5091528;28;20119;-72
2022/05/24 04:27:23;;;;;;;3.38;3.08;;;;;;;;;;5091273;28;20092;-71
2022/05/24 04:29:52;;;;;;;3.88;3.58;;;;;;;;;;5092936;28;20109;-71
2022/05/24 04:32:19;;;;;;;3.55;3.25;;;;;;;;;;5094087;28;20044;-70
2022/05/24 04:34:46;;;;;;;3.75;3.10;;;;;;;;;;5091354;28;20136;-71
2022/05/24 04:37:13;;;;;;;4.53;3.58;;;;;;;;;;5082666;28;20468;-70
2022/05/24 04:39:40;;;;;;;4.45;3.80;;;;;;;;;;5094898;28;20084;-70
2022/05/24 04:42:18;;;;;;;4.00;3.55;;;;;;;;;;5094732;28;20090;-70
2022/05/24 04:44:56;;;;;;;4.20;3.80;;;;;;;;;;5094890;28;20457;-71
2022/05/24 04:47:23;;;;;;;4.60;4.15;;;;;;;;;;5095079;28;20044;-71
2022/05/24 04:49:53;;;;;;;4.70;4.15;;;;;;;;;;5095000;28;20060;-70
2022/05/24 04:52:23;;;;;;;4.72;4.22;;;;;;;;;;5094951;28;20528;-71
2022/05/24 04:54:50;;;;;;;5.05;4.53;;;;;;;;;;5094691;28;20048;-70
2022/05/24 04:57:17;;;;;;;5.00;4.50;;;;;;;;;;5093250;28;20127;-71
2022/05/24 04:59:44;;;;;;;6.53;5.27;;;;;;;;;;5094787;28;20079;-71
2022/05/24 05:02:15;;;;;;;5.88;5.20;;;;;;;;;;5094409;28;20762;-71
2022/05/24 05:04:41;;;;;;;6.40;4.53;;;;;;;;;;5093234;28;20091;-71
2022/05/24 05:07:08;;;;;;;5.00;4.50;;;;;;;;;;5094272;28;20052;-71
2022/05/24 05:09:35;;;;;;;5.55;4.53;;;;;;;;;;5094316;28;20138;-71
2022/05/24 05:12:03;;;;;;;7.03;4.38;;;;;;;;;;5094488;28;20132;-71
2022/05/24 05:14:29;;;;;;;4.28;3.65;;;;;;;;;;5093151;28;20189;-71
2022/05/24 05:16:56;;;;;;;4.60;4.13;;;;;;;;;;5094449;28;20052;-71
2022/05/24 05:19:23;;;;;;;3.83;3.53;;;;;;;;;;5094404;28;20132;-71
2022/05/24 05:21:49;;;;;;;4.35;3.55;;;;;;;;;;5094321;28;20044;-71
2022/05/24 05:24:15;;;;;;;4.57;3.08;;;;;;;;;;5093976;28;20041;-70
2022/05/24 05:26:42;;;;;;;3.92;2.40;;;;;;;;;;5094279;28;20083;-70
2022/05/24 05:29:08;;;;;;;7.20;2.92;;;;;;;;;;5092715;28;20080;-71
2022/05/24 05:31:35;;;;;;;4.78;3.00;;;;;;;;;;5093939;28;20076;-71
2022/05/24 05:34:01;;;;;;;2.20;2.05;;;;;;;;;;5092949;28;20044;-72
2022/05/24 05:36:29;;;;;;;5.28;2.20;;;;;;;;;;5077123;28;20088;-72
2022/05/24 05:38:55;;;;;;;1.98;1.77;;;;;;;;;;5083280;28;20529;-72
2022/05/24 05:41:23;;;;;;;2.25;1.98;;;;;;;;;;5093674;28;20072;-70
2022/05/24 05:43:50;;;;;;;2.83;1.85;;;;;;;;;;5093902;28;20082;-71
2022/05/24 05:46:16;;;;;;;2.08;1.80;;;;;;;;;;5093910;28;20106;-71
2022/05/24 05:48:44;;;;;;;5.68;2.00;;;;;;;;;;5093759;28;20052;-71
2022/05/24 05:51:12;;;;;;;2.93;1.73;;;;;;;;;;5093610;28;20055;-71
2022/05/24 05:53:38;;;;;;;2.42;1.60;;;;;;;;;;5092475;28;20150;-71
2022/05/24 05:56:07;;;;;;;2.80;1.95;;;;;;;;;;5092895;28;20144;-70
2022/05/24 05:58:34;;;;;;;3.15;2.20;;;;;;;;;;5093157;28;20080;-70
2022/05/24 06:01:01;;;;;;;1.95;1.75;;;;;;;;;;5092945;28;20071;-70
2022/05/24 06:03:28;;;;;;;;;;;;;;;;;;5090492;28;20085;-70
2022/05/24 06:05:54;;;;;;;3.05;1.98;;;;;;;;;;5091815;28;19920;-71
2022/05/24 06:08:21;;;;;;;2.20;1.55;;;;;;;;;;5093029;28;20416;-70
2022/05/24 06:10:48;;;;;;;2.92;1.55;;;;;;;;;;5092884;28;20094;-71
2022/05/24 06:13:14;;;;;;;2.83;2.03;;;;;;;;;;5092526;28;20491;-71
2022/05/24 06:15:41;;;;;;;2.65;1.40;;;;;;;;;;5092581;28;20085;-70
2022/05/24 06:18:07;;;;;;;2.08;1.30;;;;;;;;;;5092513;28;20083;-70
2022/05/24 06:20:34;;;;;;;1.70;0.90;;;;;;;;;;5093073;28;20121;-70
2022/05/24 06:23:00;;;;;;;1.65;1.25;;;;;;;;;;5092851;28;20036;-70
2022/05/24 06:25:28;;;;;;;1.20;1.00;;;;;;;;;;5092395;28;20048;-70
2022/05/24 06:27:55;;;;;;;3.80;1.10;;;;;;;;;;5092714;28;20436;-70
2022/05/24 06:30:24;;;;;;;1.75;1.15;;;;;;;;;;5092758;28;20511;-72
2022/05/24 06:32:51;;;;;;;2.22;1.00;;;;;;;;;;5092919;28;20106;-69
2022/05/24 06:35:18;;;;;;;1.55;1.10;;;;;;;;;;5085702;28;20568;-70
2022/05/24 06:37:45;;;;;;;0.70;0.70;;;;;;;;;;5077466;28;20079;-67
2022/05/24 06:40:13;;;;;;;1.05;0.90;;;;;;;;;;5091670;28;20123;-68
2022/05/24 06:42:39;;;;;;;1.42;1.00;;;;;;;;;;5092450;28;20048;-69
2022/05/24 06:45:06;;;;;;;1.73;1.02;;;;;;;;;;5092645;28;20051;-69
2022/05/24 06:47:33;;;;;;;1.30;1.00;;;;;;;;;;5092760;28;20098;-67
2022/05/24 06:49:59;;;;;;;1.05;0.95;;;;;;;;;;5091786;28;20044;-68
2022/05/24 06:52:25;;;;;;;1.83;1.20;;;;;;;;;;5089542;28;20082;-68
2022/05/24 06:54:53;;;;;;;4.35;2.75;;;;;;;;;;5091416;28;20058;-67
2022/05/24 06:57:19;;;;;;;2.70;1.55;;;;;;;;;;5090665;28;20487;-67
2022/05/24 07:02:32;;;;;;;2.83;1.90;;;;;;;;;;5090049;28;20047;-66
2022/05/24 07:05:00;;;;;;;6.70;4.03;;;;;;;;;;5090612;28;20040;-66
2022/05/24 07:07:27;;;;;;;2.97;1.60;;;;;;;;;;5091904;28;20554;-68
2022/05/24 07:09:54;;;;;;;8.27;5.18;;;;;;;;;;5092423;28;20101;-68
2022/05/24 07:12:21;;;;;;;8.05;4.35;;;;;;;;;;5078180;28;20118;-68
2022/05/24 07:14:47;;;;;;;10.55;7.50;;;;;;;;;;5067900;28;20496;-68
2022/05/24 07:17:15;;;;;;;5.82;4.82;;;;;;;;;;5091767;28;20078;-68
2022/05/24 07:19:41;;;;;;;3.15;2.90;;;;;;;;;;5090304;28;20078;-69
2022/05/24 07:22:08;;;;;;;4.07;1.60;;;;;;;;;;5091511;28;20075;-71
2022/05/24 07:24:35;;;;;;;1.80;1.70;;;;;;;;;;5091691;28;20486;-67
2022/05/24 07:27:04;;;;;;;2.13;1.67;;;;;;;;;;5091132;28;20083;-68
2022/05/24 07:29:34;;;;;;;1.98;1.30;;;;;;;;;;5091726;28;20117;-68
2022/05/24 07:32:00;;;;;;;4.68;3.20;;;;;;;;;;5091374;28;20088;-68
2022/05/24 07:34:27;;;;;;;3.95;1.98;;;;;;;;;;5091789;28;20066;-69
2022/05/24 07:36:54;;;;;;;1.23;1.10;;;;;;;;;;5075635;28;20076;-68
2022/05/24 07:39:20;;;;;;;2.75;1.08;;;;;;;;;;5090911;28;20473;-69
2022/05/24 07:47:36;;;;;;;3.55;2.70;;;;;;;;;;5091742;28;20044;-69
2022/05/24 07:50:04;;;;;;;4.70;3.95;;;;;;;;;;5091799;28;20079;-69
2022/05/24 07:52:30;;;;;;;3.60;2.10;;;;;;;;;;5091925;28;20082;-68
2022/05/24 07:54:57;;;;;;;4.47;3.40;;;;;;;;;;5091637;28;20101;-69
2022/05/24 07:57:23;;;;;;;2.30;2.10;;;;;;;;;;5091847;28;20101;-68
2022/05/24 07:59:50;;;;;;;1.52;1.17;;;;;;;;;;5091811;28;20116;-69
2022/05/24 08:02:20;;;;;;;0.98;0.85;;;;;;;;;;5091674;28;20495;-69
2022/05/24 08:04:47;;;;;;;3.00;1.45;;;;;;;;;;5095819;28;20471;-69
2022/05/24 08:07:14;;;;;;;8.40;6.55;;;;;;;;;;5095435;28;20055;-68
2022/05/24 08:09:40;;;;;;;5.38;4.20;;;;;;;;;;5095732;28;20105;-69
2022/05/24 08:12:07;;;;;;;17.65;9.60;;;;;;;;;;5095686;28;20333;-67
2022/05/24 08:14:33;;;;;;;8.32;4.97;;;;;;;;;;5092620;28;20056;-67
2022/05/24 08:17:00;;;;;;;11.15;7.18;;;;;;;;;;5077907;28;20049;-67
2022/05/24 08:19:26;;;;;;;4.53;3.72;;;;;;;;;;5090188;28;20082;-67
2022/05/24 08:21:53;;;;;;;5.88;2.45;;;;;;;;;;5095308;28;20048;-67
2022/05/24 08:24:19;;;;;;;4.07;2.80;;;;;;;;;;5094607;28;20101;-67
2022/05/24 08:26:46;;;;;;;2.97;2.13;;;;;;;;;;5095466;28;20101;-67
2022/05/24 08:29:12;;;;;;;2.42;1.70;;;;;;;;;;5095348;28;20476;-67
2022/05/24 08:31:39;;;;;;;1.53;0.90;;;;;;;;;;5095367;28;20052;-67
2022/05/24 08:34:07;;;;;;;2.78;1.55;;;;;;;;;;5095319;28;20299;-67
2022/05/24 08:36:35;;;;;;;2.88;1.30;;;;;;;;;;5077537;28;20053;-67
2022/05/24 08:39:03;;;;;;;1.15;1.00;;;;;;;;;;5085860;28;20056;-67
2022/05/24 08:41:48;;;;;;;1.45;1.27;;;;;;;;;;5095173;28;20082;-66
2022/05/24 08:50:02;;;;;;;0.88;0.38;;;;;;;;;;5094905;28;20052;-66
2022/05/24 08:52:37;;;;;;;3.03;1.10;;;;;;;;;;5095016;28;20044;-66
2022/05/24 08:55:04;;;;;;;2.03;1.20;;;;;;;;;;5094734;28;20086;-66
2022/05/24 08:57:31;;;;;;;;;;;;;;;;;;5095228;28;20134;-66
2022/05/24 09:00:00;;;;;;;3.15;2.08;;;;;;;;;;5094532;28;19967;-66
2022/05/24 09:02:27;;;;;;;1.88;1.60;;;;;;;;;;5094945;28;20475;-66
2022/05/24 09:04:54;;;;;;;1.83;0.90;;;;;;;;;;5094694;28;20198;-66
2022/05/24 09:07:29;;;;;;;0.30;0.30;;;;;;;;;;5094585;28;20071;-66
2022/05/24 09:10:10;;;;;;;0.50;0.50;;;;;;;;;;5093976;28;20048;-66
2022/05/24 09:12:40;;;;;;;1.02;0.43;;;;;;;;;;5092759;28;20067;-66
2022/05/24 09:15:16;;;;;;;0.95;0.70;;;;;;;;;;5093633;28;20076;-66
2022/05/24 09:17:42;;;;;;;1.75;0.40;;;;;;;;;;5094404;28;20052;-66
2022/05/24 09:20:13;;;;;;;0.35;0.32;;;;;;;;;;5092609;28;20079;-66
2022/05/24 09:22:39;;;;;;;0.75;0.50;;;;;;;;;;5094188;28;20079;-67
2022/05/24 09:25:06;;;;;;;7.68;0.70;;;;;;;;;;5093982;28;20079;-66
2022/05/24 09:27:49;;;;;;;0.77;0.50;;;;;;;;;;5094146;28;20075;-66
2022/05/24 09:30:25;;;;;;;0.95;0.50;;;;;;;;;;5093035;28;20097;-66
2022/05/24 09:32:51;;;;;;;1.73;0.32;;;;;;;;;;5094222;28;20083;-66
2022/05/24 09:35:18;;;;;;;0.98;0.20;;;;;;;;;;5087270;28;20075;-67
2022/05/24 09:37:46;;;;;;;0.55;0.30;;;;;;;;;;5078076;28;21125;-67
2022/05/24 09:40:21;;;;;;;0.90;0.40;;;;;;;;;;5093360;28;20102;-66
2022/05/24 09:42:47;;;;;;;0.60;0.35;;;;;;;;;;5093996;28;20044;-67
2022/05/24 09:45:17;;;;;;;0.85;0.13;;;;;;;;;;5093847;28;20061;-67
2022/05/24 09:47:43;;;;;;;0.47;0.20;;;;;;;;;;5093811;28;20052;-66
2022/05/24 09:50:23;;;;;;;2.67;1.30;;;;;;;;;;5093256;28;20101;-66
2022/05/24 09:53:08;;;;;;;1.15;0.57;;;;;;;;;;5092798;28;20079;-66
2022/05/24 09:55:38;;;;;;;0.30;0.30;;;;;;;;;;5093607;28;20080;-66
2022/05/24 09:58:34;;;;;;;0.60;0.30;;;;;;;;;;5092369;28;20097;-66
2022/05/24 10:01:00;;;;;;;0.93;0.40;;;;;;;;;;5092716;28;20098;-66
2022/05/24 10:03:31;;;;;;;1.33;0.50;;;;;;;;;;5093589;28;20055;-66
2022/05/24 10:06:03;;;;;;;0.68;0.68;;;;;;;;;;5093486;28;20079;-66
2022/05/24 10:08:34;;;;;;;2.05;1.05;;;;;;;;;;5092261;28;20060;-66
2022/05/24 10:11:01;;;;;;;1.08;0.70;;;;;;;;;;5093110;28;20075;-66
2022/05/24 10:13:28;;;;;;;;;;;;;;;;;;5092769;28;20060;-66
2022/05/24 10:16:04;;;;;;;0.52;0.43;;;;;;;;;;5093265;28;19974;-66
2022/05/24 10:18:37;;;;;;;0.50;0.50;;;;;;;;;;5093165;28;20143;-66
2022/05/24 10:21:03;;;;;;;0.88;0.60;;;;;;;;;;5092785;28;20079;-66
2022/05/24 10:23:40;;;;;;;1.40;1.30;;;;;;;;;;5091727;28;20055;-66
2022/05/24 10:26:14;;;;;;;0.82;0.50;;;;;;;;;;5091714;28;20277;-66
2022/05/24 10:28:48;;;;;;;0.68;0.60;;;;;;;;;;5092499;28;20044;-66
2022/05/24 10:31:33;;;;;;;0.90;0.85;;;;;;;;;;5082410;28;20094;-68
2022/05/24 10:39:43;;;;;;;0.75;0.60;;;;;;;;;;5091881;28;20048;-68
2022/05/24 10:42:31;;;;;;;0.55;0.45;;;;;;;;;;5078322;28;20067;-68
2022/05/24 10:45:05;;;;;;;0.50;0.40;;;;;;;;;;5092706;28;20068;-69
2022/05/24 10:47:48;;;;;;;0.28;0.22;;;;;;;;;;5092701;28;20079;-68
2022/05/24 10:50:23;;;;;;;0.22;0.20;;;;;;;;;;5092375;28;20102;-68
2022/05/24 10:53:05;;;;;;;0.40;0.30;;;;;;;;;;5092124;28;20143;-69
2022/05/24 10:55:36;;;;;;;1.35;0.30;;;;;;;;;;5092229;28;20488;-69
2022/05/24 10:58:02;;;;;;;0.28;0.28;;;;;;;;;;5092366;28;20048;-69
2022/05/24 11:00:34;;;;;;;1.02;0.52;;;;;;;;;;5092327;28;20071;-69
2022/05/24 11:03:07;;;;;;;0.20;0.20;;;;;;;;;;5090956;28;20048;-69
2022/05/24 11:05:48;;;;;;;0.32;0.20;;;;;;;;;;5091976;28;20052;-69
2022/05/24 11:08:33;;;;;;;0.20;0.20;;;;;;;;;;5092316;28;20075;-69
2022/05/24 11:11:18;;;;;;;0.88;0.20;;;;;;;;;;5092219;28;20048;-69
2022/05/24 11:13:51;;;;;;;0.50;0.28;;;;;;;;;;5092295;28;20462;-69
2022/05/24 11:16:33;;;;;;;0.45;0.30;;;;;;;;;;5092237;28;20075;-69
2022/05/24 11:19:00;;;;;;;0.30;0.30;;;;;;;;;;5090990;28;20166;-69
2022/05/24 11:21:34;;;;;;;0.30;0.30;;;;;;;;;;5092143;28;20469;-69
2022/05/24 11:24:11;;;;;;;0.47;0.20;;;;;;;;;;5091836;28;20086;-69
2022/05/24 11:26:41;;;;;;;0.70;0.30;;;;;;;;;;5083828;28;20068;-69
2022/05/24 11:29:17;;;;;;;0.82;0.20;;;;;;;;;;5070344;28;20449;-69
2022/05/24 11:31:51;;;;;;;0.20;0.20;;;;;;;;;;5079807;28;20122;-69
2022/05/24 11:34:29;;;;;;;0.95;0.20;;;;;;;;;;5092036;28;20284;-69
2022/05/24 11:37:11;;;;;;;0.75;0.10;;;;;;;;;;5071279;28;20048;-70
2022/05/24 11:39:39;;;;;;;0.10;0.10;;;;;;;;;;5088312;28;20094;-69
2022/05/24 11:42:17;;;;;;;1.17;0.10;;;;;;;;;;5091864;28;20124;-69
2022/05/24 11:44:44;;;;;;;0.10;0.10;;;;;;;;;;5091769;28;20036;-69
2022/05/24 11:47:30;;;;;;;0.47;0.10;;;;;;;;;;5091572;28;20086;-70
2022/05/24 11:49:56;;;;;;;;;;;;;;;;;;5091951;28;20534;-69
2022/05/24 11:52:22;;;;;;;;;;;;;;;;;;5092274;28;19924;-70
2022/05/24 11:54:49;;;;;;;;;;;;;;;;;;5091403;28;20340;-69
2022/05/24 11:57:16;;;;;;;1.02;0.10;;;;;;;;;;5088324;28;19982;-69
2022/05/24 11:59:49;;;;;;;0.93;0.20;;;;;;;;;;5062102;28;20144;-68
2022/05/24 12:08:36;;;;;;;0.55;0.10;;;;;;;;;;5067513;28;20095;-67
2022/05/24 12:11:05;;;;;;;0.43;0.05;;;;;;;;;;5087837;28;20131;-66
2022/05/24 12:13:45;;;;;;;0.25;0.10;;;;;;;;;;5077459;28;20068;-67
2022/05/24 12:16:30;;;;;;;0.40;0.10;;;;;;;;;;5068932;28;20084;-67
2022/05/24 12:19:06;;;;;;;1.02;0.10;;;;;;;;;;5070241;28;20052;-67
2022/05/24 12:21:42;;;;;;;0.15;0.10;;;;;;;;;;5073832;28;20059;-66
2022/05/24 12:24:24;;;;;;;0.30;0.10;;;;;;;;;;5055840;28;20071;-67
2022/05/24 12:27:09;;;;;;;0.73;0.45;;;;;;;;;;5067851;28;20141;-66
2022/05/24 12:29:39;;;;;;;1.98;1.30;;;;;;;;;;5078241;28;20056;-67
2022/05/24 12:32:06;;;;;;;2.63;2.17;;;;;;;;;;5090654;28;20048;-69
2022/05/24 12:34:33;;;;;;;0.25;0.10;;;;;;;;;;5089894;28;20498;-69
2022/05/24 12:37:20;;;;;;;2.67;2.45;;;;;;;;;;5067843;28;20106;-69
2022/05/24 12:40:05;;;;;;;3.60;3.33;;;;;;;;;;5057160;28;20044;-68
2022/05/24 12:42:31;;;;;;;0.40;0.40;;;;;;;;;;5089423;28;20099;-69
2022/05/24 12:45:01;;;;;;;0.57;0.57;;;;;;;;;;5090029;28;20468;-68
2022/05/24 12:47:27;;;;;;;1.20;0.90;;;;;;;;;;5090267;28;20059;-68
2022/05/24 12:49:55;;;;;;;0.50;0.50;;;;;;;;;;5091247;28;20052;-68
2022/05/24 12:52:24;;;;;;;0.45;0.22;;;;;;;;;;5093847;28;20075;-68
2022/05/24 12:54:57;;;;;;;1.25;0.80;;;;;;;;;;5092455;28;20044;-69
2022/05/24 12:57:35;;;;;;;1.25;0.20;;;;;;;;;;5093769;28;20464;-68
2022/05/24 13:00:09;;;;;;;0.50;0.10;;;;;;;;;;5093398;28;20083;-68
2022/05/24 13:02:46;;;;;;;1.85;0.70;;;;;;;;;;5093624;28;20054;-68
2022/05/24 13:05:18;;;;;;;6.68;4.32;;;;;;;;;;5092688;28;20044;-69
2022/05/24 13:07:46;;;;;;;2.95;1.23;;;;;;;;;;5093267;28;20052;-68
2022/05/24 13:10:19;;;;;;;2.55;1.05;;;;;;;;;;5093472;28;20079;-68
2022/05/24 13:12:46;;;;;;;1.42;0.98;;;;;;;;;;5093471;28;20101;-68
2022/05/24 13:15:15;;;;;;;1.60;1.15;;;;;;;;;;5093198;28;20079;-69
2022/05/24 13:17:43;;;;;;;2.42;1.80;;;;;;;;;;5093307;28;20062;-69
2022/05/24 13:20:11;;;;;;;1.23;1.00;;;;;;;;;;5092921;28;20048;-69
2022/05/24 13:22:41;;;;;;;0.70;0.55;;;;;;;;;;5093127;28;20480;-69
2022/05/24 13:25:15;;;;;;;1.13;0.50;;;;;;;;;;5092995;28;20078;-69
2022/05/24 13:28:00;;;;;;;0.38;0.20;;;;;;;;;;5093241;28;20056;-69
2022/05/24 13:33:34;;;;;;;1.48;0.50;;;;;;;;;;5092774;28;20072;-69
2022/05/24 13:36:16;;;;;;;1.77;0.80;;;;;;;;;;5078117;28;20040;-68
2022/05/24 13:38:44;;;;;;;0.75;0.60;;;;;;;;;;5086014;28;20079;-68
2022/05/24 13:41:11;;;;;;;1.70;0.80;;;;;;;;;;5092402;28;20048;-68
2022/05/24 13:43:42;;;;;;;0.60;0.25;;;;;;;;;;5092871;28;20075;-69
2022/05/24 13:46:12;;;;;;;0.73;0.50;;;;;;;;;;5092889;28;20377;-69
2022/05/24 13:48:42;;;;;;;1.73;0.80;;;;;;;;;;5092679;28;20078;-69
2022/05/24 13:51:14;;;;;;;0.93;0.70;;;;;;;;;;5093012;28;20052;-68
2022/05/24 13:53:41;;;;;;;0.30;0.20;;;;;;;;;;5092445;28;20113;-69
2022/05/24 13:56:14;;;;;;;0.98;0.40;;;;;;;;;;5092325;28;20423;-69
2022/05/24 13:58:46;;;;;;;0.35;0.20;;;;;;;;;;5092441;28;20074;-69
2022/05/24 14:01:24;;;;;;;1.92;0.88;;;;;;;;;;5092370;28;20047;-69
2022/05/24 14:03:54;;;;;;;1.13;0.73;;;;;;;;;;5092408;28;20056;-69
2022/05/24 14:06:25;;;;;;;1.17;0.50;;;;;;;;;;5092484;28;20055;-69
2022/05/24 14:08:53;;;;;;;0.73;0.32;;;;;;;;;;5092357;28;20082;-69
2022/05/24 14:11:21;;;;;;;1.48;0.60;;;;;;;;;;5091697;28;20084;-69
2022/05/24 14:13:47;;;;;;;0.20;0.10;;;;;;;;;;5092267;28;20052;-69
2022/05/24 14:16:15;;;;;;;1.45;0.38;;;;;;;;;;5092238;28;20468;-70
2022/05/24 14:18:43;;;;;;;1.27;0.52;;;;;;;;;;5091831;28;20247;-70
2022/05/24 14:21:10;;;;;;;1.10;0.40;;;;;;;;;;5091826;28;20094;-70
2022/05/24 14:23:37;;;;;;;0.95;0.10;;;;;;;;;;5092028;28;20075;-70
2022/05/24 14:26:04;;;;;;;0.85;0.15;;;;;;;;;;5092097;28;20121;-67
2022/05/24 14:28:31;;;;;;;0.28;0.10;;;;;;;;;;5091936;28;20101;-67
2022/05/24 14:30:57;;;;;;;1.15;0.40;;;;;;;;;;5091698;28;20496;-67
2022/05/24 14:33:24;;;;;;;;;;;;;;;;;;5092315;28;20051;-67
2022/05/24 14:35:50;;;;;;;1.08;0.85;;;;;;;;;;5078752;28;20167;-67
2022/05/24 14:38:17;;;;;;;1.08;0.40;;;;;;;;;;5086052;28;20060;-66
2022/05/24 14:40:45;;;;;;;1.25;0.68;;;;;;;;;;5092145;28;20076;-66
2022/05/24 14:43:14;;;;;;;1.95;1.80;;;;;;;;;;5091024;28;20101;-66
2022/05/24 14:45:40;;;;;;;1.38;0.50;;;;;;;;;;5091329;28;20048;-65
2022/05/24 14:48:07;;;;;;;1.25;0.20;;;;;;;;;;5091642;28;20083;-66
2022/05/24 14:50:33;;;;;;;;;;;;;;;;;;5091676;28;20090;-66
2022/05/24 14:53:00;;;;;;;;;;;;;;;;;;5091679;28;19971;-67
2022/05/24 14:55:27;;;;;;;0.57;0.10;;;;;;;;;;5091472;28;19924;-66
2022/05/24 14:57:53;;;;;;;0.22;0.10;;;;;;;;;;5091378;28;20446;-66
2022/05/24 15:00:20;;;;;;;;;;;;;;;;;;5091586;28;20083;-68
2022/05/24 15:02:46;;;;;;;0.13;0.08;;;;;;;;;;5091310;28;19967;-66
2022/05/24 15:05:12;;;;;;;4.35;0.10;;;;;;;;;;5091116;28;20067;-66
2022/05/24 15:15:57;;;;;;;0.77;0.20;;;;;;;;;;5090042;28;20079;-67
2022/05/24 15:18:23;;;;;;;0.25;0.00;;;;;;;;;;5089454;28;20436;-67
2022/05/24 15:20:50;;;;;;;0.60;0.00;;;;;;;;;;5090953;28;20079;-67
2022/05/24 15:23:18;;;;;;;0.52;0.00;;;;;;;;;;5077234;28;20052;-66
2022/05/24 15:25:50;;;;;;;0.45;0.03;;;;;;;;;;5063588;28;20139;-67
2022/05/24 15:28:17;;;;;;;0.17;0.00;;;;;;;;;;5090979;28;20105;-66
2022/05/24 15:30:44;;;;;;;0.63;0.00;;;;;;;;;;5090160;28;20631;-67
2022/05/24 15:33:10;;;;;;;;;;;;;;;;;;5091627;28;20052;-66
2022/05/24 15:35:37;;;;;;;0.20;0.00;;;;;;;;;;5082774;28;19963;-66
2022/05/24 15:38:03;;;;;;;;;;;;;;;;;;5083315;28;20059;-67
2022/05/24 15:40:29;;;;;;;;;;;;;;;;;;5092122;28;19974;-66
2022/05/24 15:42:57;;;;;;;0.35;0.05;;;;;;;;;;5092031;28;19924;-67
2022/05/24 15:45:24;;;;;;;0.00;0.00;;;;;;;;;;5090368;28;20449;-67
2022/05/24 15:47:50;;;;;;;0.73;0.10;;;;;;;;;;5091943;28;20481;-67
2022/05/24 15:50:17;;;;;;;0.10;0.10;;;;;;;;;;5091484;28;20090;-67